Time;durP1;ratioP1;P1;durP2;ratioP2;P2;SDS_P1;SDS_P2;PMS_P1;PMS_P2;Temp;Humidity;BMP_temperature;BMP_pressure;BME280_temperature;BME280_humidity;BME280_pressure;Samples;Min_cycle;Max_cycle;Signal;HPM_P1;HPM_P2
2024/01/04 00:01:31;;;;;;;6.03;1.42;;;;;;;7.75;100.00;99615.16;6079423;19;20034;-74
2024/01/04 00:03:36;;;;;;;8.30;2.10;;;;;;;7.70;100.00;99611.00;6078651;19;20038;-72
2024/01/04 00:05:41;;;;;;;3.40;1.55;;;;;;;7.73;100.00;99617.00;6082959;19;20117;-73
2024/01/04 00:07:44;;;;;;;5.68;1.88;;;;;;;7.72;100.00;99626.63;6079940;19;20486;-72
2024/01/04 00:09:51;;;;;;;21.63;2.30;;;;;;;7.72;100.00;99629.25;6081142;19;20612;-74
2024/01/04 00:11:56;;;;;;;8.32;1.90;;;;;;;7.75;100.00;99638.69;6084504;19;20137;-73
2024/01/04 00:14:01;;;;;;;8.68;1.67;;;;;;;7.75;100.00;99639.53;6081756;19;20434;-74
2024/01/04 00:16:12;;;;;;;5.72;1.85;;;;;;;7.81;100.00;99647.09;6084844;19;20046;-73
2024/01/04 00:18:20;;;;;;;4.00;1.80;;;;;;;7.83;100.00;99645.25;6084870;19;20023;-72
2024/01/04 00:20:24;;;;;;;7.43;1.70;;;;;;;7.83;100.00;99653.09;6081546;19;20011;-74
2024/01/04 00:22:29;;;;;;;4.07;1.67;;;;;;;7.86;100.00;99650.31;6086464;19;20543;-75
2024/01/04 00:24:37;;;;;;;4.22;2.30;;;;;;;7.85;100.00;99651.25;6083795;19;20019;-75
2024/01/04 00:26:42;;;;;;;8.82;2.00;;;;;;;7.90;100.00;99653.66;6086419;19;20809;-74
2024/01/04 00:28:47;;;;;;;10.77;2.58;;;;;;;7.91;100.00;99657.97;6083514;19;20025;-72
2024/01/04 00:30:52;;;;;;;6.03;2.42;;;;;;;7.90;100.00;99651.88;6084532;19;20668;-72
2024/01/04 00:32:57;;;;;;;6.18;1.88;;;;;;;7.88;100.00;99664.19;6084604;19;20352;-72
2024/01/04 00:35:06;;;;;;;9.65;2.72;;;;;;;8.11;100.00;99659.63;6084301;19;20023;-72
2024/01/04 00:37:11;;;;;;;4.93;2.35;;;;;;;8.02;100.00;99666.13;6082816;19;20090;-72
2024/01/04 00:39:16;;;;;;;7.25;2.47;;;;;;;7.93;100.00;99668.34;6081323;19;20019;-72
2024/01/04 00:41:18;;;;;;;17.30;3.10;;;;;;;8.02;100.00;99678.38;6086194;19;20475;-72
2024/01/04 00:43:23;;;;;;;16.13;3.17;;;;;;;7.99;100.00;99674.13;6086523;19;20017;-74
2024/01/04 00:45:28;;;;;;;9.32;3.22;;;;;;;7.99;100.00;99675.91;6090153;19;20401;-72
2024/01/04 00:47:31;;;;;;;11.45;2.80;;;;;;;8.05;100.00;99686.06;6089473;19;20019;-72
2024/01/04 00:49:36;;;;;;;10.52;3.65;;;;;;;7.97;100.00;99681.19;6088817;19;20135;-72
2024/01/04 00:51:44;;;;;;;12.32;3.40;;;;;;;8.17;100.00;99700.31;6090744;19;20447;-72
2024/01/04 00:53:47;;;;;;;11.13;3.95;;;;;;;8.23;100.00;99706.09;6084307;19;20483;-72
2024/01/04 00:55:52;;;;;;;8.40;3.08;;;;;;;8.24;100.00;99712.16;6084574;19;20051;-71
2024/01/04 00:57:56;;;;;;;5.03;2.30;;;;;;;8.11;100.00;99704.94;6089258;19;20398;-72
2024/01/04 01:00:03;;;;;;;7.45;2.88;;;;;;;8.04;100.00;99705.31;6088569;19;20035;-73
2024/01/04 01:02:08;;;;;;;7.30;3.03;;;;;;;8.08;100.00;99712.06;6087157;19;20014;-73
2024/01/04 01:04:12;;;;;;;8.70;2.75;;;;;;;8.06;100.00;99709.53;6087033;19;20461;-73
2024/01/04 01:06:18;;;;;;;11.32;3.15;;;;;;;8.08;100.00;99707.72;6089282;19;20537;-73
2024/01/04 01:08:25;;;;;;;10.70;3.85;;;;;;;8.13;100.00;99715.31;6087574;19;21107;-74
2024/01/04 01:10:32;;;;;;;9.70;2.65;;;;;;;7.85;100.00;99719.25;6087945;19;20015;-73
2024/01/04 01:12:34;;;;;;;5.35;2.92;;;;;;;7.79;100.00;99722.16;6082842;19;20381;-74
2024/01/04 01:14:39;;;;;;;;;;;;;;;7.79;100.00;99730.00;6090733;19;20114;-74
2024/01/04 01:16:44;;;;;;;7.43;3.22;;;;;;;7.70;100.00;99738.28;6088440;19;19950;-75
2024/01/04 01:18:47;;;;;;;11.00;3.15;;;;;;;7.73;100.00;99732.91;6089752;19;20497;-74
2024/01/04 01:20:52;;;;;;;7.45;2.90;;;;;;;7.67;100.00;99734.03;6084569;19;20010;-72
2024/01/04 01:22:57;;;;;;;14.43;3.92;;;;;;;7.61;100.00;99734.34;6088946;19;20010;-74
2024/01/04 01:25:04;;;;;;;6.70;3.67;;;;;;;7.58;100.00;99746.69;6086364;19;20018;-75
2024/01/04 01:27:10;;;;;;;7.32;3.60;;;;;;;7.57;100.00;99755.44;6089314;19;20083;-74
2024/01/04 01:29:15;;;;;;;18.33;5.38;;;;;;;7.57;100.00;99752.84;6087684;19;20007;-74
2024/01/04 01:31:20;;;;;;;14.52;3.92;;;;;;;7.62;100.00;99758.69;6086178;19;20003;-74
2024/01/04 01:33:22;;;;;;;12.98;4.30;;;;;;;7.66;100.00;99768.09;6083888;19;20014;-73
2024/01/04 01:35:27;;;;;;;13.88;4.22;;;;;;;7.64;100.00;99769.94;6084422;19;20095;-72
2024/01/04 01:37:34;;;;;;;11.00;4.55;;;;;;;7.70;100.00;99774.88;6083929;19;20436;-74
2024/01/04 01:39:37;;;;;;;11.02;5.03;;;;;;;7.79;100.00;99784.06;6086999;19;20364;-74
2024/01/04 01:41:45;;;;;;;13.48;5.57;;;;;;;7.84;100.00;99780.31;6086083;19;20018;-74
2024/01/04 01:43:50;;;;;;;11.82;5.72;;;;;;;7.83;100.00;99780.41;6087188;19;19998;-74
2024/01/04 01:45:55;;;;;;;25.77;5.05;;;;;;;7.82;100.00;99792.66;6088787;19;20021;-74
2024/01/04 01:48:00;;;;;;;13.52;5.10;;;;;;;7.85;100.00;99795.13;6089921;19;20015;-73
2024/01/04 01:50:06;;;;;;;18.23;5.57;;;;;;;7.89;100.00;99793.19;6083873;19;20023;-72
2024/01/04 01:52:08;;;;;;;16.33;5.35;;;;;;;7.91;100.00;99802.66;6084206;19;20507;-73
2024/01/04 01:54:16;;;;;;;11.63;4.63;;;;;;;7.93;100.00;99807.00;6084671;19;20034;-73
2024/01/04 01:56:22;;;;;;;16.92;5.95;;;;;;;7.90;100.00;99803.59;6083527;19;20463;-74
2024/01/04 01:58:30;;;;;;;17.30;5.90;;;;;;;7.94;100.00;99809.53;6086121;19;20003;-74
2024/01/04 02:00:36;;;;;;;13.82;4.90;;;;;;;7.90;100.00;99814.06;6084229;19;20029;-72
2024/01/04 02:02:41;;;;;;;13.88;4.35;;;;;;;7.91;100.00;99804.44;6083657;19;20034;-72
2024/01/04 02:04:47;;;;;;;12.70;4.53;;;;;;;7.86;100.00;99816.88;6084072;19;20028;-73
2024/01/04 02:06:52;;;;;;;13.77;4.80;;;;;;;7.85;100.00;99809.97;6086806;19;20003;-73
2024/01/04 02:08:57;;;;;;;13.60;4.18;;;;;;;7.91;100.00;99826.22;6087253;19;20069;-73
2024/01/04 02:11:02;;;;;;;12.05;5.13;;;;;;;7.90;100.00;99823.69;6085048;19;20006;-74
2024/01/04 02:13:09;;;;;;;12.70;4.30;;;;;;;7.96;100.00;99831.25;6085674;19;20022;-73
2024/01/04 02:15:17;;;;;;;10.70;4.97;;;;;;;7.94;100.00;99827.84;6084273;19;19999;-74
2024/01/04 02:17:20;;;;;;;10.38;4.63;;;;;;;7.89;100.00;99824.59;6084607;19;20007;-74
2024/01/04 02:19:27;;;;;;;;;;;;;;;7.90;100.00;99839.38;6085922;19;20009;-74
2024/01/04 02:21:32;;;;;;;8.65;4.65;;;;;;;7.83;100.00;99836.19;6086654;19;19918;-74
2024/01/04 02:23:39;;;;;;;13.13;5.00;;;;;;;7.80;100.00;99836.31;6085060;19;20019;-74
2024/01/04 02:25:45;;;;;;;18.23;4.88;;;;;;;7.85;100.00;99843.97;6085508;19;20007;-73
2024/01/04 02:27:50;;;;;;;12.30;5.22;;;;;;;7.83;100.00;99843.19;6081432;19;20148;-73
2024/01/04 02:29:55;;;;;;;17.88;4.50;;;;;;;7.84;100.00;99845.72;6087114;19;20348;-73
2024/01/04 02:32:00;;;;;;;8.80;3.88;;;;;;;7.85;100.00;99847.44;6088591;19;20100;-73
2024/01/04 02:34:05;;;;;;;14.55;3.95;;;;;;;7.86;100.00;99853.50;6086061;19;20006;-74
2024/01/04 02:36:10;;;;;;;10.32;3.75;;;;;;;7.87;100.00;99858.66;6087008;19;20010;-74
2024/01/04 02:38:16;;;;;;;13.77;5.20;;;;;;;7.92;100.00;99858.44;6083732;19;20415;-74
2024/01/04 02:40:24;;;;;;;13.85;4.72;;;;;;;7.96;100.00;99865.25;6084679;19;20371;-73
2024/01/04 02:42:30;;;;;;;10.30;5.28;;;;;;;7.98;100.00;99873.00;6085865;19;20013;-75
2024/01/04 02:44:35;;;;;;;14.93;5.20;;;;;;;8.00;100.00;99871.19;6084706;19;20011;-74
2024/01/04 02:46:45;;;;;;;16.30;5.60;;;;;;;8.00;100.00;99876.41;6084259;19;20010;-74
2024/01/04 02:48:50;;;;;;;11.55;4.38;;;;;;;8.01;100.00;99868.50;6085638;19;20010;-72
2024/01/04 02:50:55;;;;;;;13.65;5.43;;;;;;;8.03;100.00;99874.53;6085078;19;20467;-73
2024/01/04 02:53:00;;;;;;;11.98;4.72;;;;;;;8.06;100.00;99876.16;6082359;19;20010;-73
2024/01/04 02:55:06;;;;;;;16.60;5.80;;;;;;;8.06;100.00;99891.84;6086042;19;20490;-74
2024/01/04 02:57:14;;;;;;;14.23;5.18;;;;;;;8.08;100.00;99880.41;6084554;19;20013;-72
2024/01/04 02:59:19;;;;;;;19.60;6.80;;;;;;;8.09;100.00;99871.63;6085810;19;20455;-73
2024/01/04 03:01:22;;;;;;;17.77;5.43;;;;;;;8.10;100.00;99875.06;6085895;19;20344;-74
2024/01/04 03:03:27;;;;;;;19.75;7.70;;;;;;;8.12;100.00;99888.94;6077283;19;19999;-71
2024/01/04 03:05:33;;;;;;;15.77;5.07;;;;;;;8.16;100.00;99885.25;6081473;19;20459;-72
2024/01/04 03:07:38;;;;;;;16.52;5.47;;;;;;;8.14;100.00;99884.50;6084288;19;20113;-73
2024/01/04 03:09:43;;;;;;;13.88;5.03;;;;;;;8.22;100.00;99892.84;6083839;19;20011;-73
2024/01/04 03:11:48;;;;;;;16.38;4.85;;;;;;;8.20;100.00;99897.28;6084340;19;20007;-73
2024/01/04 03:13:54;;;;;;;9.45;4.72;;;;;;;8.24;100.00;99905.84;6082856;19;20114;-73
2024/01/04 03:15:59;;;;;;;15.57;5.20;;;;;;;8.26;100.00;99909.25;6082535;19;20018;-73
2024/01/04 03:18:04;;;;;;;13.05;5.20;;;;;;;8.30;100.00;99905.59;6083779;19;20110;-74
2024/01/04 03:20:10;;;;;;;20.70;4.97;;;;;;;8.30;100.00;99893.34;6082527;19;20011;-73
2024/01/04 03:22:13;;;;;;;18.73;5.20;;;;;;;8.24;100.00;99905.84;6081046;19;20525;-73
2024/01/04 03:24:18;;;;;;;16.13;5.10;;;;;;;8.21;100.00;99901.59;6079992;19;20015;-73
2024/01/04 03:26:24;;;;;;;18.92;4.13;;;;;;;8.21;100.00;99909.44;6081950;19;20039;-73
2024/01/04 03:28:29;;;;;;;10.63;3.65;;;;;;;8.14;100.00;99913.28;6083009;19;20740;-73
2024/01/04 03:30:36;;;;;;;13.85;3.53;;;;;;;8.10;100.00;99923.03;6081861;19;20028;-74
2024/01/04 03:32:41;;;;;;;10.50;4.32;;;;;;;8.05;100.00;99921.53;6084200;19;20074;-73
2024/01/04 03:34:47;;;;;;;10.20;3.88;;;;;;;8.00;100.00;99928.72;6082804;19;20098;-73
2024/01/04 03:36:52;;;;;;;9.23;3.25;;;;;;;7.98;100.00;99933.19;6083005;19;20007;-72
2024/01/04 03:38:58;;;;;;;17.00;4.90;;;;;;;7.95;100.00;99930.69;6081380;19;20002;-72
2024/01/04 03:41:03;;;;;;;8.00;3.20;;;;;;;8.03;100.00;99934.69;6082631;19;20144;-73
2024/01/04 03:43:09;;;;;;;7.47;3.20;;;;;;;7.98;100.00;99944.50;6080578;19;20036;-72
2024/01/04 03:45:17;;;;;;;12.82;3.58;;;;;;;8.04;100.00;99948.63;6080211;19;20115;-72
2024/01/04 03:47:26;;;;;;;9.02;3.90;;;;;;;8.02;100.00;99945.22;6084297;19;20010;-73
2024/01/04 03:49:31;;;;;;;12.57;3.83;;;;;;;8.06;100.00;99952.03;6074708;19;20011;-72
2024/01/04 03:51:36;;;;;;;10.98;3.40;;;;;;;8.08;100.00;99950.16;6081355;19;20018;-73
2024/01/04 03:53:43;;;;;;;10.98;4.38;;;;;;;8.03;100.00;99950.41;6080086;19;20015;-72
2024/01/04 03:55:45;;;;;;;15.77;4.20;;;;;;;8.07;100.00;99964.19;6083088;19;20025;-74
2024/01/04 03:57:50;;;;;;;11.00;3.50;;;;;;;8.07;100.00;99961.56;6084285;19;20078;-73
2024/01/04 03:59:56;;;;;;;10.55;3.88;;;;;;;8.09;100.00;99963.19;6082071;19;20002;-74
2024/01/04 04:01:58;;;;;;;8.35;3.33;;;;;;;8.07;100.00;99962.41;6082126;19;20458;-73
2024/01/04 04:04:07;;;;;;;10.50;3.60;;;;;;;8.16;100.00;99968.16;6078550;19;20011;-72
2024/01/04 04:06:12;;;;;;;12.57;3.58;;;;;;;8.11;100.00;99963.16;6080266;19;20006;-72
2024/01/04 04:08:17;;;;;;;8.98;3.67;;;;;;;8.12;100.00;99960.44;6082628;19;20014;-72
2024/01/04 04:10:22;;;;;;;10.90;3.75;;;;;;;8.11;100.00;99971.00;6080045;19;20007;-73
2024/01/04 04:12:27;;;;;;;7.85;4.05;;;;;;;8.06;100.00;99976.41;6079636;19;20007;-71
2024/01/04 04:14:34;;;;;;;9.38;3.13;;;;;;;8.00;100.00;99971.44;6082419;19;20020;-74
2024/01/04 04:16:42;;;;;;;14.75;2.97;;;;;;;7.97;100.00;99975.97;6084194;19;20766;-71
2024/01/04 04:18:44;;;;;;;6.25;2.67;;;;;;;7.94;100.00;99976.94;6088601;19;20027;-71
2024/01/04 04:20:52;;;;;;;9.27;3.83;;;;;;;7.95;100.00;99978.63;6086383;19;20011;-71
2024/01/04 04:22:58;;;;;;;8.20;4.55;;;;;;;7.98;100.00;99977.66;6085941;19;20090;-73
2024/01/04 04:25:02;;;;;;;7.50;4.03;;;;;;;8.01;100.00;99975.78;6090424;19;20522;-72
2024/01/04 04:27:07;;;;;;;10.63;4.47;;;;;;;8.01;100.00;99977.53;6088835;19;20018;-72
2024/01/04 04:29:12;;;;;;;16.77;4.63;;;;;;;8.02;100.00;99976.63;6090317;19;20043;-72
2024/01/04 04:31:18;;;;;;;13.45;4.78;;;;;;;7.96;100.00;99977.75;6088156;19;20034;-73
2024/01/04 04:33:24;;;;;;;17.83;3.63;;;;;;;7.94;100.00;99986.56;6086455;19;20622;-73
2024/01/04 04:35:26;;;;;;;6.55;3.88;;;;;;;7.93;100.00;99982.25;6088626;19;20334;-72
2024/01/04 04:37:34;;;;;;;13.88;4.35;;;;;;;7.95;100.00;99988.25;6084184;19;20019;-72
2024/01/04 04:39:39;;;;;;;8.32;3.47;;;;;;;7.99;100.00;99989.84;6087224;19;20007;-72
2024/01/04 04:41:44;;;;;;;11.65;3.75;;;;;;;7.99;100.00;99998.53;6091587;19;20014;-72
2024/01/04 04:43:49;;;;;;;9.50;3.45;;;;;;;8.01;100.00;99996.72;6086805;19;20006;-72
2024/01/04 04:45:54;;;;;;;11.23;3.70;;;;;;;8.06;100.00;100005.22;6087303;19;20010;-72
2024/01/04 04:47:59;;;;;;;9.40;4.10;;;;;;;8.07;100.00;100000.81;6088838;19;20078;-72
2024/01/04 04:50:03;;;;;;;8.63;3.70;;;;;;;8.05;100.00;100013.94;6083657;19;20006;-74
2024/01/04 04:52:09;;;;;;;11.85;4.03;;;;;;;8.06;100.00;100022.69;6083395;19;20010;-74
2024/01/04 04:54:16;;;;;;;15.23;4.03;;;;;;;8.08;100.00;100033.91;6087010;19;20023;-73
2024/01/04 04:56:21;;;;;;;7.75;3.38;;;;;;;8.06;100.00;100051.47;6086530;19;20423;-73
2024/01/04 04:58:26;;;;;;;9.20;2.65;;;;;;;7.94;100.00;100026.66;6089507;19;20454;-72
2024/01/04 05:00:31;;;;;;;7.45;2.63;;;;;;;7.76;100.00;100020.44;6084160;19;20019;-72
2024/01/04 05:02:36;;;;;;;4.07;1.73;;;;;;;7.74;100.00;100021.41;6087705;19;20038;-73
2024/01/04 05:04:43;;;;;;;3.78;1.60;;;;;;;7.69;100.00;100016.38;6087892;19;20745;-71
2024/01/04 05:06:48;;;;;;;1.58;1.15;;;;;;;7.64;100.00;100020.97;6089781;19;20011;-73
2024/01/04 05:08:53;;;;;;;2.40;1.33;;;;;;;7.64;100.00;100026.19;6086285;19;20016;-72
2024/01/04 05:11:00;;;;;;;4.20;1.73;;;;;;;7.62;100.00;100028.00;6088334;19;20471;-74
2024/01/04 05:13:06;;;;;;;2.08;1.48;;;;;;;7.58;100.00;100026.41;6089241;19;20010;-72
2024/01/04 05:15:12;;;;;;;3.15;1.58;;;;;;;7.53;100.00;100033.59;6087571;19;20081;-73
2024/01/04 05:17:17;;;;;;;4.47;1.98;;;;;;;7.63;100.00;100046.22;6087067;19;20566;-72
2024/01/04 05:19:19;;;;;;;4.72;1.70;;;;;;;7.56;100.00;100044.81;6085606;19;20015;-72
2024/01/04 05:21:24;;;;;;;3.95;2.15;;;;;;;7.50;100.00;100047.66;6087842;19;20007;-72
2024/01/04 05:23:29;;;;;;;3.05;1.98;;;;;;;7.52;100.00;100043.22;6085185;19;20594;-72
2024/01/04 05:25:35;;;;;;;4.22;2.05;;;;;;;7.53;100.00;100051.91;6078229;19;20010;-71
2024/01/04 05:27:47;;;;;;;3.60;2.00;;;;;;;7.56;100.00;100054.41;6084743;19;20002;-71
2024/01/04 05:29:52;;;;;;;4.35;2.08;;;;;;;7.59;100.00;100057.75;6085079;19;20057;-72
2024/01/04 05:31:57;;;;;;;2.95;1.50;;;;;;;7.54;100.00;100062.31;6086025;19;20476;-71
2024/01/04 05:34:02;;;;;;;6.40;2.13;;;;;;;7.55;100.00;100068.38;6086368;19;20160;-74
2024/01/04 05:36:08;;;;;;;7.13;2.47;;;;;;;7.56;100.00;100063.09;6088847;19;20117;-73
2024/01/04 05:38:13;;;;;;;4.47;2.05;;;;;;;7.53;100.00;100068.47;6084480;19;20515;-72
2024/01/04 05:40:18;;;;;;;4.38;2.30;;;;;;;7.53;100.00;100065.84;6085314;19;20381;-73
2024/01/04 05:42:23;;;;;;;3.13;2.00;;;;;;;7.50;100.00;100072.94;6085896;19;20007;-73
2024/01/04 05:44:31;;;;;;;5.72;2.33;;;;;;;7.44;100.00;100077.50;6084437;19;20187;-73
2024/01/04 05:46:36;;;;;;;3.75;2.03;;;;;;;7.47;100.00;100081.75;6085772;19;20014;-73
2024/01/04 05:48:41;;;;;;;6.05;2.13;;;;;;;7.42;100.00;100086.31;6087062;19;20474;-72
2024/01/04 05:50:46;;;;;;;7.47;2.45;;;;;;;7.48;100.00;100083.47;6086818;19;20006;-72
2024/01/04 05:52:51;;;;;;;12.73;2.58;;;;;;;7.34;100.00;100089.22;6083408;19;20470;-71
2024/01/04 05:54:56;;;;;;;6.28;2.17;;;;;;;7.42;100.00;100089.78;6086940;19;20003;-72
2024/01/04 05:57:01;;;;;;;4.80;2.53;;;;;;;7.46;100.00;100095.75;6085337;19;20014;-72
2024/01/04 05:59:07;;;;;;;5.13;2.53;;;;;;;7.48;100.00;100100.00;6085658;19;20009;-72
2024/01/04 06:01:17;;;;;;;10.15;2.53;;;;;;;7.48;100.00;100099.16;6085103;19;20006;-71
2024/01/04 06:03:22;;;;;;;9.43;3.05;;;;;;;7.52;100.00;100102.50;6087263;19;20336;-70
2024/01/04 06:05:28;;;;;;;11.50;3.22;;;;;;;7.55;100.00;100099.75;6085390;19;20043;-73
2024/01/04 06:07:33;;;;;;;7.35;3.10;;;;;;;7.58;100.00;100107.47;6084136;19;20010;-71
2024/01/04 06:09:38;;;;;;;6.50;2.40;;;;;;;7.58;100.00;100110.09;6082498;19;20011;-71
2024/01/04 06:11:43;;;;;;;7.55;3.33;;;;;;;7.60;100.00;100113.50;6086632;19;20680;-71
2024/01/04 06:13:48;;;;;;;8.57;3.17;;;;;;;7.73;100.00;100108.63;6086630;19;20582;-71
2024/01/04 06:15:53;;;;;;;11.27;3.30;;;;;;;7.76;100.00;100113.75;6086716;19;20436;-71
2024/01/04 06:17:58;;;;;;;5.90;3.00;;;;;;;7.79;100.00;100119.69;6085927;19;20032;-71
2024/01/04 06:20:04;;;;;;;12.38;3.55;;;;;;;7.78;100.00;100114.53;6088852;19;20022;-72
2024/01/04 06:22:10;;;;;;;9.93;3.92;;;;;;;7.80;100.00;100123.19;6087032;19;20002;-72
2024/01/04 06:24:15;;;;;;;7.70;3.03;;;;;;;7.70;100.00;100127.91;6086831;19;20028;-71
2024/01/04 06:26:24;;;;;;;5.93;2.85;;;;;;;7.70;100.00;100130.53;6086605;19;20022;-70
2024/01/04 06:28:29;;;;;;;8.98;3.22;;;;;;;7.73;100.00;100140.88;6085897;19;20013;-73
2024/01/04 06:30:35;;;;;;;6.00;3.10;;;;;;;7.70;100.00;100136.59;6086164;19;20011;-73
2024/01/04 06:32:38;;;;;;;10.32;4.03;;;;;;;7.67;100.00;100135.88;6087073;19;20013;-72
2024/01/04 06:34:46;;;;;;;11.15;3.80;;;;;;;7.68;100.00;100141.03;6087507;19;20014;-73
2024/01/04 06:36:51;;;;;;;7.72;3.17;;;;;;;7.72;100.00;100146.19;6082457;19;20009;-72
2024/01/04 06:38:56;;;;;;;8.35;2.85;;;;;;;7.72;100.00;100139.16;6085705;19;20026;-72
2024/01/04 06:41:02;;;;;;;12.05;3.70;;;;;;;7.74;100.00;100142.59;6085543;19;20015;-72
2024/01/04 06:43:09;;;;;;;6.70;2.75;;;;;;;7.73;100.00;100153.94;6084791;19;20480;-73
2024/01/04 06:45:14;;;;;;;4.40;2.90;;;;;;;7.73;100.00;100161.78;6083789;19;20006;-72
2024/01/04 06:47:17;;;;;;;10.05;3.40;;;;;;;7.74;100.00;100168.75;6084899;19;20518;-77
2024/01/04 06:49:22;;;;;;;6.85;2.67;;;;;;;7.78;100.00;100175.53;6084827;19;20003;-72
2024/01/04 06:51:27;;;;;;;10.90;4.07;;;;;;;7.76;100.00;100173.88;6086029;19;20106;-72
2024/01/04 06:53:32;;;;;;;9.15;2.95;;;;;;;7.79;100.00;100182.47;6080648;19;20623;-72
2024/01/04 06:55:37;;;;;;;7.00;2.60;;;;;;;7.75;100.00;100178.28;6085687;19;20046;-72
2024/01/04 06:57:42;;;;;;;5.25;2.40;;;;;;;7.70;100.00;100181.06;6078202;19;20003;-72
2024/01/04 06:59:44;;;;;;;14.45;3.58;;;;;;;7.70;100.00;100183.69;6081760;19;20090;-71
2024/01/04 07:01:50;;;;;;;7.57;2.67;;;;;;;7.70;100.00;100183.69;6084196;19;20378;-72
2024/01/04 07:03:55;;;;;;;8.23;2.83;;;;;;;7.67;100.00;100181.19;6082868;19;20120;-72
2024/01/04 07:06:05;;;;;;;9.30;2.50;;;;;;;7.64;100.00;100180.47;6085117;19;20553;-71
2024/01/04 07:08:13;;;;;;;7.75;2.20;;;;;;;7.63;100.00;100181.34;6083844;19;20018;-74
2024/01/04 07:10:15;;;;;;;7.72;2.40;;;;;;;7.65;100.00;100179.53;6085169;19;20522;-72
2024/01/04 07:12:20;;;;;;;6.40;2.25;;;;;;;7.61;100.00;100184.06;6086815;19;20006;-72
2024/01/04 07:14:25;;;;;;;14.93;3.13;;;;;;;7.63;100.00;100186.59;6078996;19;20082;-74
2024/01/04 07:16:30;;;;;;;7.00;2.35;;;;;;;7.63;100.00;100176.97;6084751;19;20035;-73
2024/01/04 07:18:35;;;;;;;6.05;2.42;;;;;;;7.65;100.00;100188.25;6085133;19;20674;-73
2024/01/04 07:20:43;;;;;;;6.93;2.17;;;;;;;7.61;100.00;100193.63;6085331;19;20013;-72
2024/01/04 07:22:52;;;;;;;8.35;2.28;;;;;;;7.55;100.00;100197.34;6083486;19;20039;-72
2024/01/04 07:25:00;;;;;;;3.33;1.77;;;;;;;7.57;100.00;100202.53;6084672;19;20500;-73
2024/01/04 07:27:06;;;;;;;9.00;2.97;;;;;;;7.57;100.00;100205.13;6084163;19;20089;-72
2024/01/04 07:29:11;;;;;;;8.95;2.20;;;;;;;7.57;100.00;100205.13;6085073;19;20011;-72
2024/01/04 07:31:13;;;;;;;4.15;1.83;;;;;;;7.57;100.00;100215.59;6082345;19;20014;-72
2024/01/04 07:33:21;;;;;;;2.00;1.42;;;;;;;7.60;100.00;100207.63;6086033;19;20017;-73
2024/01/04 07:35:26;;;;;;;5.68;2.17;;;;;;;7.58;100.00;100220.78;6083130;19;20074;-72
2024/01/04 07:37:31;;;;;;;5.57;1.58;;;;;;;7.60;100.00;100210.25;6085424;19;20014;-71
2024/01/04 07:39:36;;;;;;;6.82;1.90;;;;;;;7.60;100.00;100212.84;6086484;19;20014;-72
2024/01/04 07:41:47;;;;;;;3.03;1.25;;;;;;;7.62;100.00;100221.50;6081452;19;20007;-72
2024/01/04 07:43:55;;;;;;;5.90;1.65;;;;;;;7.60;100.00;100220.72;6078401;19;20034;-72
2024/01/04 07:46:00;;;;;;;4.75;1.70;;;;;;;7.54;100.00;100223.56;6084523;19;20014;-72
2024/01/04 07:48:05;;;;;;;2.95;2.00;;;;;;;7.50;100.00;100227.19;6085624;19;20025;-72
2024/01/04 07:50:11;;;;;;;6.07;1.73;;;;;;;7.52;100.00;100230.59;6082230;19;20011;-72
2024/01/04 07:52:16;;;;;;;3.03;1.40;;;;;;;7.44;100.00;100234.34;6066264;19;19999;-73
2024/01/04 07:54:22;;;;;;;8.93;1.85;;;;;;;7.36;100.00;100236.41;6071352;19;20510;-72
2024/01/04 07:56:28;;;;;;;9.60;2.30;;;;;;;7.40;100.00;100243.22;6079310;19;20007;-72
2024/01/04 07:58:35;;;;;;;4.13;1.70;;;;;;;7.37;100.00;100248.59;6080476;19;20015;-72
2024/01/04 08:00:40;;;;;;;5.13;1.67;;;;;;;7.35;100.00;100252.16;6074714;19;20006;-74
2024/01/04 08:02:46;;;;;;;5.65;1.88;;;;;;;7.35;100.00;100255.63;6078629;19;20841;-73
2024/01/04 08:04:53;;;;;;;4.03;1.73;;;;;;;7.41;100.00;100254.53;6077661;19;20007;-72
2024/01/04 08:06:58;;;;;;;2.30;1.50;;;;;;;7.35;100.00;100254.78;6081197;19;20014;-70
2024/01/04 08:09:03;;;;;;;2.53;1.50;;;;;;;7.36;100.00;100251.25;6079121;19;20512;-73
2024/01/04 08:11:10;;;;;;;6.32;1.60;;;;;;;7.32;100.00;100249.63;6081588;19;20581;-73
2024/01/04 08:13:17;;;;;;;3.20;1.25;;;;;;;7.35;100.00;100246.94;6080891;19;20027;-72
2024/01/04 08:15:25;;;;;;;2.80;1.67;;;;;;;7.29;100.00;100247.97;6081510;19;20011;-72
2024/01/04 08:17:30;;;;;;;2.95;1.60;;;;;;;7.29;100.00;100245.38;6082480;19;20014;-73
2024/01/04 08:19:36;;;;;;;5.15;1.50;;;;;;;7.27;100.00;100244.59;6079740;19;20007;-72
2024/01/04 08:21:41;;;;;;;1.23;1.13;;;;;;;7.26;100.00;100248.09;6078485;19;20023;-72
2024/01/04 08:23:46;;;;;;;2.83;1.65;;;;;;;7.22;100.00;100247.38;6080414;19;20015;-73
2024/01/04 08:25:51;;;;;;;1.65;1.40;;;;;;;7.25;100.00;100254.25;6081037;19;20101;-72
2024/01/04 08:27:57;;;;;;;4.80;1.70;;;;;;;7.25;100.00;100255.09;6073461;19;20929;-71
2024/01/04 08:30:02;;;;;;;3.30;1.48;;;;;;;7.26;100.00;100254.16;6078231;19;20352;-71
2024/01/04 08:32:08;;;;;;;2.65;1.42;;;;;;;7.26;100.00;100258.56;6077374;19;20036;-72
2024/01/04 08:34:13;;;;;;;5.03;1.65;;;;;;;7.28;100.00;100259.34;6080758;19;20011;-71
2024/01/04 08:36:18;;;;;;;3.17;1.50;;;;;;;7.30;100.00;100261.94;6081712;19;20500;-71
2024/01/04 08:38:23;;;;;;;4.82;1.70;;;;;;;7.32;100.00;100260.09;6081862;19;20032;-73
2024/01/04 08:40:27;;;;;;;4.22;2.05;;;;;;;7.40;100.00;100263.31;6079442;19;20010;-71
2024/01/04 08:42:32;;;;;;;4.78;1.50;;;;;;;7.31;100.00;100264.47;6080746;19;20507;-71
2024/01/04 08:44:37;;;;;;;4.40;1.55;;;;;;;7.30;100.00;100269.75;6084454;19;20018;-72
2024/01/04 08:46:42;;;;;;;5.10;1.48;;;;;;;7.30;100.00;100275.00;6081118;19;20246;-73
2024/01/04 08:48:50;;;;;;;1.40;1.30;;;;;;;7.33;100.00;100270.50;6080766;19;20021;-72
2024/01/04 08:50:55;;;;;;;1.48;1.38;;;;;;;7.35;100.00;100286.97;6079485;19;20031;-72
2024/01/04 08:53:01;;;;;;;3.42;1.77;;;;;;;7.39;100.00;100277.25;6077870;19;20480;-71
2024/01/04 08:55:07;;;;;;;3.42;1.80;;;;;;;7.45;100.00;100280.50;6080852;19;20380;-73
2024/01/04 08:57:12;;;;;;;2.47;1.60;;;;;;;7.43;100.00;100287.56;6081667;19;20023;-74
2024/01/04 08:59:15;;;;;;;3.20;1.80;;;;;;;7.46;100.00;100290.06;6078511;19;20003;-73
2024/01/04 09:01:20;;;;;;;5.65;1.48;;;;;;;7.50;100.00;100297.78;6079656;19;20023;-73
2024/01/04 09:03:25;;;;;;;2.92;1.80;;;;;;;7.50;100.00;100300.38;6082108;19;20030;-72
2024/01/04 09:05:31;;;;;;;5.13;1.85;;;;;;;7.53;100.00;100305.50;6084435;19;20490;-74
2024/01/04 09:07:38;;;;;;;6.18;1.77;;;;;;;7.68;100.00;100311.03;6088237;19;20015;-71
2024/01/04 09:09:44;;;;;;;3.17;1.75;;;;;;;7.59;100.00;100307.91;6090394;19;20012;-73
2024/01/04 09:11:49;;;;;;;5.53;2.20;;;;;;;7.65;100.00;100318.13;6084969;19;20138;-73
2024/01/04 09:13:54;;;;;;;4.53;2.10;;;;;;;7.62;100.00;100324.34;6085009;19;20045;-72
2024/01/04 09:16:00;;;;;;;6.03;2.38;;;;;;;7.62;100.00;100318.25;6084804;19;20050;-73
2024/01/04 09:18:05;;;;;;;3.42;1.80;;;;;;;7.64;100.00;100325.13;6080475;19;20026;-72
2024/01/04 09:20:09;;;;;;;4.03;2.00;;;;;;;7.66;100.00;100314.59;6084123;19;20007;-73
2024/01/04 09:22:17;;;;;;;4.28;1.77;;;;;;;7.69;100.00;100322.38;6083328;19;20010;-73
2024/01/04 09:24:22;;;;;;;6.13;2.20;;;;;;;7.76;100.00;100317.75;6086907;19;20003;-72
2024/01/04 09:26:27;;;;;;;5.20;1.85;;;;;;;7.84;100.00;100326.16;6085939;19;20845;-70
2024/01/04 09:28:32;;;;;;;3.90;1.75;;;;;;;8.03;100.00;100329.78;6085729;19;20014;-70
2024/01/04 09:30:37;;;;;;;3.65;2.15;;;;;;;7.93;100.00;100322.34;6088627;19;20065;-73
2024/01/04 09:32:40;;;;;;;4.93;2.55;;;;;;;8.00;100.00;100327.28;6086566;19;20003;-71
2024/01/04 09:34:45;;;;;;;4.53;2.83;;;;;;;8.18;100.00;100319.63;6084522;19;20585;-72
2024/01/04 09:36:50;;;;;;;4.70;2.25;;;;;;;8.13;100.00;100323.28;6086817;19;20462;-71
2024/01/04 09:38:58;;;;;;;10.85;2.60;;;;;;;8.10;100.00;100333.88;6084335;19;20007;-73
2024/01/04 09:41:19;;;;;;;7.97;2.33;;;;;;;8.20;100.00;100344.00;6082549;19;20420;-73
2024/01/04 09:43:24;;;;;;;2.60;1.92;;;;;;;8.20;100.00;100339.59;6085027;19;20014;-73
2024/01/04 09:45:31;;;;;;;4.32;1.75;;;;;;;8.23;100.00;100339.47;6084648;19;20023;-73